sensor_id;sensor_type;location;lat;lon;timestamp;P1;durP1;ratioP1;P2;durP2;ratioP2
30571;SDS011;17348;50.948;10.696;2024-01-16T00:02:11;2.17;;;1.40;;
30571;SDS011;17348;50.948;10.696;2024-01-16T00:05:13;4.03;;;1.70;;
30571;SDS011;17348;50.948;10.696;2024-01-16T00:08:16;2.50;;;1.53;;
30571;SDS011;17348;50.948;10.696;2024-01-16T00:11:21;3.03;;;0.80;;
30571;SDS011;17348;50.948;10.696;2024-01-16T00:14:24;4.40;;;1.97;;
30571;SDS011;17348;50.948;10.696;2024-01-16T00:17:27;9.67;;;2.40;;
30571;SDS011;17348;50.948;10.696;2024-01-16T00:20:29;4.23;;;2.03;;
30571;SDS011;17348;50.948;10.696;2024-01-16T00:23:32;5.90;;;2.10;;
30571;SDS011;17348;50.948;10.696;2024-01-16T00:26:34;8.30;;;2.13;;
30571;SDS011;17348;50.948;10.696;2024-01-16T00:29:37;8.57;;;2.33;;
30571;SDS011;17348;50.948;10.696;2024-01-16T00:32:41;3.87;;;1.50;;
30571;SDS011;17348;50.948;10.696;2024-01-16T00:35:43;4.77;;;2.13;;
30571;SDS011;17348;50.948;10.696;2024-01-16T00:38:46;6.53;;;2.73;;
30571;SDS011;17348;50.948;10.696;2024-01-16T00:41:48;11.37;;;2.03;;
30571;SDS011;17348;50.948;10.696;2024-01-16T00:44:51;7.97;;;2.07;;
30571;SDS011;17348;50.948;10.696;2024-01-16T00:47:54;4.30;;;1.90;;
30571;SDS011;17348;50.948;10.696;2024-01-16T00:50:56;10.27;;;2.93;;
30571;SDS011;17348;50.948;10.696;2024-01-16T00:53:59;4.90;;;1.93;;
30571;SDS011;17348;50.948;10.696;2024-01-16T00:57:01;3.17;;;1.80;;
30571;SDS011;17348;50.948;10.696;2024-01-16T01:00:04;2.43;;;1.30;;
30571;SDS011;17348;50.948;10.696;2024-01-16T01:03:12;7.53;;;1.67;;
30571;SDS011;17348;50.948;10.696;2024-01-16T01:06:14;7.73;;;1.93;;
30571;SDS011;17348;50.948;10.696;2024-01-16T01:09:16;2.63;;;1.80;;
30571;SDS011;17348;50.948;10.696;2024-01-16T01:12:19;3.80;;;1.53;;
30571;SDS011;17348;50.948;10.696;2024-01-16T01:15:21;6.13;;;1.93;;
30571;SDS011;17348;50.948;10.696;2024-01-16T01:18:25;3.43;;;2.03;;
30571;SDS011;17348;50.948;10.696;2024-01-16T01:21:27;2.60;;;1.70;;
30571;SDS011;17348;50.948;10.696;2024-01-16T01:24:31;7.00;;;2.10;;
30571;SDS011;17348;50.948;10.696;2024-01-16T01:27:33;8.70;;;1.83;;
30571;SDS011;17348;50.948;10.696;2024-01-16T01:30:36;4.73;;;1.53;;
30571;SDS011;17348;50.948;10.696;2024-01-16T01:33:40;4.07;;;1.80;;
30571;SDS011;17348;50.948;10.696;2024-01-16T01:36:43;7.93;;;2.10;;
30571;SDS011;17348;50.948;10.696;2024-01-16T01:39:45;7.93;;;2.03;;
30571;SDS011;17348;50.948;10.696;2024-01-16T01:42:47;7.40;;;1.80;;
30571;SDS011;17348;50.948;10.696;2024-01-16T01:45:54;6.80;;;1.30;;
30571;SDS011;17348;50.948;10.696;2024-01-16T01:49:08;7.77;;;1.83;;
30571;SDS011;17348;50.948;10.696;2024-01-16T01:52:13;7.80;;;2.43;;
30571;SDS011;17348;50.948;10.696;2024-01-16T01:55:15;5.23;;;1.87;;
30571;SDS011;17348;50.948;10.696;2024-01-16T01:58:17;7.80;;;1.70;;
30571;SDS011;17348;50.948;10.696;2024-01-16T02:01:20;4.50;;;1.47;;
30571;SDS011;17348;50.948;10.696;2024-01-16T02:04:25;6.97;;;1.90;;
30571;SDS011;17348;50.948;10.696;2024-01-16T02:07:29;5.73;;;1.67;;
30571;SDS011;17348;50.948;10.696;2024-01-16T02:10:35;3.83;;;1.70;;
30571;SDS011;17348;50.948;10.696;2024-01-16T02:13:39;11.93;;;2.20;;
30571;SDS011;17348;50.948;10.696;2024-01-16T02:16:42;13.17;;;2.83;;
30571;SDS011;17348;50.948;10.696;2024-01-16T02:19:47;8.50;;;2.53;;
30571;SDS011;17348;50.948;10.696;2024-01-16T02:22:49;4.63;;;1.63;;
30571;SDS011;17348;50.948;10.696;2024-01-16T02:25:58;8.30;;;2.30;;
30571;SDS011;17348;50.948;10.696;2024-01-16T02:29:04;8.67;;;2.87;;
30571;SDS011;17348;50.948;10.696;2024-01-16T02:32:06;13.13;;;2.37;;
30571;SDS011;17348;50.948;10.696;2024-01-16T02:35:08;12.83;;;2.23;;
30571;SDS011;17348;50.948;10.696;2024-01-16T02:38:11;6.00;;;2.07;;
30571;SDS011;17348;50.948;10.696;2024-01-16T02:41:15;6.70;;;1.90;;
30571;SDS011;17348;50.948;10.696;2024-01-16T02:44:17;6.47;;;2.00;;
30571;SDS011;17348;50.948;10.696;2024-01-16T02:47:20;7.30;;;2.20;;
30571;SDS011;17348;50.948;10.696;2024-01-16T02:50:22;6.23;;;2.20;;
30571;SDS011;17348;50.948;10.696;2024-01-16T02:53:24;6.47;;;2.37;;
30571;SDS011;17348;50.948;10.696;2024-01-16T02:56:30;4.70;;;2.53;;
30571;SDS011;17348;50.948;10.696;2024-01-16T02:59:32;3.40;;;1.83;;
30571;SDS011;17348;50.948;10.696;2024-01-16T03:02:34;5.57;;;1.83;;
30571;SDS011;17348;50.948;10.696;2024-01-16T03:05:37;2.90;;;1.73;;
30571;SDS011;17348;50.948;10.696;2024-01-16T03:08:39;4.60;;;2.43;;
30571;SDS011;17348;50.948;10.696;2024-01-16T03:11:43;8.10;;;2.60;;
30571;SDS011;17348;50.948;10.696;2024-01-16T03:14:45;6.13;;;1.90;;
30571;SDS011;17348;50.948;10.696;2024-01-16T03:17:47;3.73;;;1.80;;
30571;SDS011;17348;50.948;10.696;2024-01-16T03:20:51;9.47;;;2.30;;
30571;SDS011;17348;50.948;10.696;2024-01-16T03:23:53;5.57;;;1.80;;
30571;SDS011;17348;50.948;10.696;2024-01-16T03:26:57;6.90;;;1.90;;
30571;SDS011;17348;50.948;10.696;2024-01-16T03:29:59;2.87;;;1.67;;
30571;SDS011;17348;50.948;10.696;2024-01-16T03:33:02;5.53;;;2.03;;
30571;SDS011;17348;50.948;10.696;2024-01-16T03:36:05;7.63;;;1.90;;
30571;SDS011;17348;50.948;10.696;2024-01-16T03:39:08;5.67;;;1.77;;
30571;SDS011;17348;50.948;10.696;2024-01-16T03:42:11;5.10;;;2.80;;
30571;SDS011;17348;50.948;10.696;2024-01-16T03:45:14;1.43;;;1.00;;
30571;SDS011;17348;50.948;10.696;2024-01-16T03:48:16;8.33;;;2.43;;
30571;SDS011;17348;50.948;10.696;2024-01-16T03:51:19;2.70;;;1.90;;
30571;SDS011;17348;50.948;10.696;2024-01-16T03:54:21;8.17;;;2.67;;
30571;SDS011;17348;50.948;10.696;2024-01-16T03:57:25;10.87;;;2.30;;
30571;SDS011;17348;50.948;10.696;2024-01-16T04:00:27;9.67;;;2.67;;
30571;SDS011;17348;50.948;10.696;2024-01-16T04:03:29;16.80;;;2.37;;
30571;SDS011;17348;50.948;10.696;2024-01-16T04:06:31;8.00;;;2.97;;
30571;SDS011;17348;50.948;10.696;2024-01-16T04:09:34;10.53;;;2.70;;
30571;SDS011;17348;50.948;10.696;2024-01-16T04:12:37;14.63;;;4.07;;
30571;SDS011;17348;50.948;10.696;2024-01-16T04:15:40;15.30;;;3.60;;
30571;SDS011;17348;50.948;10.696;2024-01-16T04:18:42;8.80;;;3.50;;
30571;SDS011;17348;50.948;10.696;2024-01-16T04:21:45;9.70;;;3.10;;
30571;SDS011;17348;50.948;10.696;2024-01-16T04:24:47;7.83;;;2.20;;
30571;SDS011;17348;50.948;10.696;2024-01-16T04:27:51;5.53;;;2.67;;
30571;SDS011;17348;50.948;10.696;2024-01-16T04:30:53;5.43;;;2.50;;
30571;SDS011;17348;50.948;10.696;2024-01-16T04:33:56;8.00;;;2.47;;
30571;SDS011;17348;50.948;10.696;2024-01-16T04:36:58;14.27;;;3.50;;
30571;SDS011;17348;50.948;10.696;2024-01-16T04:40:00;9.87;;;2.30;;
30571;SDS011;17348;50.948;10.696;2024-01-16T04:43:04;22.83;;;3.50;;
30571;SDS011;17348;50.948;10.696;2024-01-16T04:46:07;7.97;;;2.73;;
30571;SDS011;17348;50.948;10.696;2024-01-16T04:49:09;15.80;;;2.90;;
30571;SDS011;17348;50.948;10.696;2024-01-16T04:52:12;8.67;;;2.40;;
30571;SDS011;17348;50.948;10.696;2024-01-16T04:55:14;18.03;;;2.53;;
30571;SDS011;17348;50.948;10.696;2024-01-16T04:58:18;6.53;;;2.80;;
30571;SDS011;17348;50.948;10.696;2024-01-16T05:01:21;6.27;;;2.83;;
30571;SDS011;17348;50.948;10.696;2024-01-16T05:04:23;9.07;;;2.47;;
30571;SDS011;17348;50.948;10.696;2024-01-16T05:07:25;4.20;;;1.83;;
30571;SDS011;17348;50.948;10.696;2024-01-16T05:10:27;7.90;;;3.10;;
30571;SDS011;17348;50.948;10.696;2024-01-16T05:13:32;20.77;;;2.50;;
30571;SDS011;17348;50.948;10.696;2024-01-16T05:16:34;5.70;;;1.87;;
30571;SDS011;17348;50.948;10.696;2024-01-16T05:19:37;6.67;;;2.67;;
30571;SDS011;17348;50.948;10.696;2024-01-16T05:22:39;7.00;;;2.57;;
30571;SDS011;17348;50.948;10.696;2024-01-16T05:25:41;8.27;;;2.50;;
30571;SDS011;17348;50.948;10.696;2024-01-16T05:28:45;7.37;;;2.57;;
30571;SDS011;17348;50.948;10.696;2024-01-16T05:31:47;7.70;;;3.03;;
30571;SDS011;17348;50.948;10.696;2024-01-16T05:34:50;9.90;;;3.03;;
30571;SDS011;17348;50.948;10.696;2024-01-16T05:37:52;4.53;;;2.40;;
30571;SDS011;17348;50.948;10.696;2024-01-16T05:40:54;6.13;;;2.20;;
30571;SDS011;17348;50.948;10.696;2024-01-16T05:43:58;12.70;;;2.77;;
30571;SDS011;17348;50.948;10.696;2024-01-16T05:47:00;8.77;;;2.70;;
30571;SDS011;17348;50.948;10.696;2024-01-16T05:50:03;5.50;;;2.73;;
30571;SDS011;17348;50.948;10.696;2024-01-16T05:53:06;7.10;;;3.13;;
30571;SDS011;17348;50.948;10.696;2024-01-16T05:56:09;7.60;;;2.80;;
30571;SDS011;17348;50.948;10.696;2024-01-16T05:59:12;11.27;;;3.10;;
30571;SDS011;17348;50.948;10.696;2024-01-16T06:02:18;8.63;;;2.33;;
30571;SDS011;17348;50.948;10.696;2024-01-16T06:05:20;8.10;;;2.30;;
30571;SDS011;17348;50.948;10.696;2024-01-16T06:08:22;3.97;;;1.87;;
30571;SDS011;17348;50.948;10.696;2024-01-16T06:11:29;5.47;;;2.27;;
30571;SDS011;17348;50.948;10.696;2024-01-16T06:14:33;6.23;;;2.40;;
30571;SDS011;17348;50.948;10.696;2024-01-16T06:17:37;5.40;;;1.80;;
30571;SDS011;17348;50.948;10.696;2024-01-16T06:20:39;8.60;;;2.37;;
30571;SDS011;17348;50.948;10.696;2024-01-16T06:23:42;4.23;;;2.43;;
30571;SDS011;17348;50.948;10.696;2024-01-16T06:26:44;18.83;;;3.50;;
30571;SDS011;17348;50.948;10.696;2024-01-16T06:29:48;9.50;;;3.53;;
30571;SDS011;17348;50.948;10.696;2024-01-16T06:32:51;12.20;;;2.80;;
30571;SDS011;17348;50.948;10.696;2024-01-16T06:35:54;17.70;;;3.17;;
30571;SDS011;17348;50.948;10.696;2024-01-16T06:38:56;7.77;;;3.27;;
30571;SDS011;17348;50.948;10.696;2024-01-16T06:41:58;16.07;;;3.00;;
30571;SDS011;17348;50.948;10.696;2024-01-16T06:45:02;51.00;;;13.07;;
30571;SDS011;17348;50.948;10.696;2024-01-16T06:48:05;81.73;;;16.77;;
30571;SDS011;17348;50.948;10.696;2024-01-16T06:51:08;48.17;;;12.97;;
30571;SDS011;17348;50.948;10.696;2024-01-16T06:54:11;34.80;;;9.73;;
30571;SDS011;17348;50.948;10.696;2024-01-16T06:57:13;54.00;;;14.70;;
30571;SDS011;17348;50.948;10.696;2024-01-16T07:00:17;26.77;;;8.50;;
30571;SDS011;17348;50.948;10.696;2024-01-16T07:03:23;26.57;;;11.20;;
30571;SDS011;17348;50.948;10.696;2024-01-16T07:06:25;13.77;;;6.20;;
30571;SDS011;17348;50.948;10.696;2024-01-16T07:09:28;10.23;;;6.40;;
30571;SDS011;17348;50.948;10.696;2024-01-16T07:12:31;10.77;;;3.83;;
30571;SDS011;17348;50.948;10.696;2024-01-16T07:15:34;11.13;;;3.17;;
30571;SDS011;17348;50.948;10.696;2024-01-16T07:18:37;15.70;;;3.27;;
30571;SDS011;17348;50.948;10.696;2024-01-16T07:21:40;8.13;;;3.17;;
30571;SDS011;17348;50.948;10.696;2024-01-16T07:24:45;16.90;;;3.57;;
30571;SDS011;17348;50.948;10.696;2024-01-16T07:27:47;5.57;;;2.63;;
30571;SDS011;17348;50.948;10.696;2024-01-16T07:30:53;9.63;;;2.73;;
30571;SDS011;17348;50.948;10.696;2024-01-16T07:33:55;7.27;;;2.47;;
30571;SDS011;17348;50.948;10.696;2024-01-16T07:36:58;12.23;;;2.60;;
30571;SDS011;17348;50.948;10.696;2024-01-16T07:40:00;9.17;;;2.60;;
30571;SDS011;17348;50.948;10.696;2024-01-16T07:43:02;6.93;;;2.80;;
30571;SDS011;17348;50.948;10.696;2024-01-16T07:46:06;9.10;;;2.93;;
30571;SDS011;17348;50.948;10.696;2024-01-16T07:49:08;9.07;;;3.43;;
30571;SDS011;17348;50.948;10.696;2024-01-16T07:52:11;6.07;;;2.67;;
30571;SDS011;17348;50.948;10.696;2024-01-16T07:55:13;7.23;;;2.57;;
30571;SDS011;17348;50.948;10.696;2024-01-16T07:58:16;5.43;;;2.73;;
30571;SDS011;17348;50.948;10.696;2024-01-16T08:01:22;11.80;;;2.57;;
30571;SDS011;17348;50.948;10.696;2024-01-16T08:04:24;14.23;;;2.90;;
30571;SDS011;17348;50.948;10.696;2024-01-16T08:07:27;6.03;;;2.50;;
30571;SDS011;17348;50.948;10.696;2024-01-16T08:10:29;9.50;;;2.27;;
30571;SDS011;17348;50.948;10.696;2024-01-16T08:13:31;9.90;;;2.20;;
30571;SDS011;17348;50.948;10.696;2024-01-16T08:16:35;50.97;;;13.17;;
30571;SDS011;17348;50.948;10.696;2024-01-16T08:19:37;17.17;;;4.97;;
30571;SDS011;17348;50.948;10.696;2024-01-16T08:22:40;6.90;;;2.43;;
30571;SDS011;17348;50.948;10.696;2024-01-16T08:25:42;9.67;;;3.50;;
30571;SDS011;17348;50.948;10.696;2024-01-16T08:28:44;5.30;;;2.67;;
30571;SDS011;17348;50.948;10.696;2024-01-16T08:31:48;7.67;;;2.93;;
30571;SDS011;17348;50.948;10.696;2024-01-16T08:34:51;12.00;;;3.73;;
30571;SDS011;17348;50.948;10.696;2024-01-16T08:37:54;6.97;;;3.57;;
30571;SDS011;17348;50.948;10.696;2024-01-16T08:40:56;10.30;;;3.07;;
30571;SDS011;17348;50.948;10.696;2024-01-16T08:43:58;8.37;;;2.70;;
30571;SDS011;17348;50.948;10.696;2024-01-16T08:47:02;7.87;;;2.80;;
30571;SDS011;17348;50.948;10.696;2024-01-16T08:50:06;8.97;;;2.97;;
30571;SDS011;17348;50.948;10.696;2024-01-16T08:53:09;9.47;;;3.03;;
30571;SDS011;17348;50.948;10.696;2024-01-16T08:56:12;10.43;;;3.07;;
30571;SDS011;17348;50.948;10.696;2024-01-16T08:59:18;7.80;;;3.10;;
30571;SDS011;17348;50.948;10.696;2024-01-16T09:02:22;5.03;;;2.90;;
30571;SDS011;17348;50.948;10.696;2024-01-16T09:05:29;9.83;;;3.83;;
30571;SDS011;17348;50.948;10.696;2024-01-16T09:08:31;6.43;;;3.37;;
30571;SDS011;17348;50.948;10.696;2024-01-16T09:11:33;9.13;;;3.30;;
30571;SDS011;17348;50.948;10.696;2024-01-16T09:14:38;8.67;;;3.80;;
30571;SDS011;17348;50.948;10.696;2024-01-16T09:17:43;11.23;;;4.00;;
30571;SDS011;17348;50.948;10.696;2024-01-16T09:20:48;11.43;;;4.27;;
30571;SDS011;17348;50.948;10.696;2024-01-16T09:23:53;9.50;;;4.37;;
30571;SDS011;17348;50.948;10.696;2024-01-16T09:26:55;9.83;;;3.97;;
30571;SDS011;17348;50.948;10.696;2024-01-16T09:29:59;11.27;;;4.37;;
30571;SDS011;17348;50.948;10.696;2024-01-16T09:33:03;9.07;;;4.17;;
30571;SDS011;17348;50.948;10.696;2024-01-16T09:36:07;11.07;;;4.83;;
30571;SDS011;17348;50.948;10.696;2024-01-16T09:39:09;9.13;;;4.50;;
30571;SDS011;17348;50.948;10.696;2024-01-16T09:42:12;9.83;;;4.37;;
30571;SDS011;17348;50.948;10.696;2024-01-16T09:45:16;11.07;;;4.07;;
30571;SDS011;17348;50.948;10.696;2024-01-16T09:48:23;14.50;;;4.97;;
30571;SDS011;17348;50.948;10.696;2024-01-16T09:51:27;10.43;;;4.80;;
30571;SDS011;17348;50.948;10.696;2024-01-16T09:54:29;11.53;;;4.80;;
30571;SDS011;17348;50.948;10.696;2024-01-16T09:57:32;9.20;;;4.20;;
30571;SDS011;17348;50.948;10.696;2024-01-16T10:00:36;14.00;;;5.07;;
30571;SDS011;17348;50.948;10.696;2024-01-16T10:03:40;6.63;;;3.80;;
30571;SDS011;17348;50.948;10.696;2024-01-16T10:06:46;13.60;;;4.70;;
30571;SDS011;17348;50.948;10.696;2024-01-16T10:09:48;12.20;;;5.67;;
30571;SDS011;17348;50.948;10.696;2024-01-16T10:12:50;12.67;;;4.40;;
30571;SDS011;17348;50.948;10.696;2024-01-16T10:15:54;6.50;;;3.60;;
30571;SDS011;17348;50.948;10.696;2024-01-16T10:19:04;6.10;;;4.43;;
30571;SDS011;17348;50.948;10.696;2024-01-16T10:22:06;13.13;;;4.53;;
30571;SDS011;17348;50.948;10.696;2024-01-16T10:25:09;7.67;;;3.50;;
30571;SDS011;17348;50.948;10.696;2024-01-16T10:28:19;8.40;;;3.70;;
30571;SDS011;17348;50.948;10.696;2024-01-16T10:31:25;6.47;;;3.87;;
30571;SDS011;17348;50.948;10.696;2024-01-16T10:34:33;3.80;;;2.53;;
30571;SDS011;17348;50.948;10.696;2024-01-16T10:37:41;5.87;;;2.80;;
30571;SDS011;17348;50.948;10.696;2024-01-16T10:40:44;5.70;;;3.40;;
30571;SDS011;17348;50.948;10.696;2024-01-16T10:43:47;10.10;;;3.37;;
30571;SDS011;17348;50.948;10.696;2024-01-16T10:46:49;7.00;;;3.93;;
30571;SDS011;17348;50.948;10.696;2024-01-16T10:49:53;14.63;;;4.93;;
30571;SDS011;17348;50.948;10.696;2024-01-16T10:52:55;8.70;;;4.10;;
30571;SDS011;17348;50.948;10.696;2024-01-16T10:56:01;15.70;;;6.30;;
30571;SDS011;17348;50.948;10.696;2024-01-16T10:59:09;7.40;;;3.40;;
30571;SDS011;17348;50.948;10.696;2024-01-16T11:02:19;7.68;;;4.40;;
30571;SDS011;17348;50.948;10.696;2024-01-16T11:05:26;5.97;;;3.70;;
30571;SDS011;17348;50.948;10.696;2024-01-16T11:08:30;9.53;;;3.30;;
30571;SDS011;17348;50.948;10.696;2024-01-16T11:11:34;6.20;;;3.80;;
30571;SDS011;17348;50.948;10.696;2024-01-16T11:14:38;8.53;;;3.80;;
30571;SDS011;17348;50.948;10.696;2024-01-16T11:17:43;40.47;;;11.27;;
30571;SDS011;17348;50.948;10.696;2024-01-16T11:20:48;80.40;;;19.33;;
30571;SDS011;17348;50.948;10.696;2024-01-16T11:23:50;21.13;;;6.37;;
30571;SDS011;17348;50.948;10.696;2024-01-16T11:26:53;68.33;;;17.93;;
30571;SDS011;17348;50.948;10.696;2024-01-16T11:29:55;8.60;;;4.47;;
30571;SDS011;17348;50.948;10.696;2024-01-16T11:32:59;21.93;;;8.93;;
30571;SDS011;17348;50.948;10.696;2024-01-16T11:36:03;13.17;;;3.40;;
30571;SDS011;17348;50.948;10.696;2024-01-16T11:39:06;7.67;;;3.27;;
30571;SDS011;17348;50.948;10.696;2024-01-16T11:42:11;6.17;;;2.63;;
30571;SDS011;17348;50.948;10.696;2024-01-16T11:49:01;6.73;;;3.30;;
30571;SDS011;17348;50.948;10.696;2024-01-16T11:52:05;7.27;;;2.50;;
30571;SDS011;17348;50.948;10.696;2024-01-16T11:58:35;3.67;;;2.40;;
30571;SDS011;17348;50.948;10.696;2024-01-16T12:01:50;9.00;;;3.47;;
30571;SDS011;17348;50.948;10.696;2024-01-16T12:04:54;9.10;;;3.20;;
30571;SDS011;17348;50.948;10.696;2024-01-16T12:07:58;8.77;;;2.90;;
30571;SDS011;17348;50.948;10.696;2024-01-16T12:11:04;8.33;;;3.23;;
30571;SDS011;17348;50.948;10.696;2024-01-16T12:14:06;5.63;;;3.63;;
30571;SDS011;17348;50.948;10.696;2024-01-16T12:17:09;9.03;;;3.20;;
30571;SDS011;17348;50.948;10.696;2024-01-16T12:20:16;8.57;;;3.20;;
30571;SDS011;17348;50.948;10.696;2024-01-16T12:23:20;7.97;;;3.80;;
30571;SDS011;17348;50.948;10.696;2024-01-16T12:26:23;7.43;;;4.00;;
30571;SDS011;17348;50.948;10.696;2024-01-16T12:29:26;10.90;;;3.73;;
30571;SDS011;17348;50.948;10.696;2024-01-16T12:32:30;4.30;;;3.23;;
30571;SDS011;17348;50.948;10.696;2024-01-16T12:35:32;5.80;;;3.20;;
30571;SDS011;17348;50.948;10.696;2024-01-16T12:38:37;6.20;;;3.63;;
30571;SDS011;17348;50.948;10.696;2024-01-16T12:41:41;5.80;;;3.43;;
30571;SDS011;17348;50.948;10.696;2024-01-16T12:44:45;7.20;;;3.30;;
30571;SDS011;17348;50.948;10.696;2024-01-16T12:47:51;7.13;;;4.07;;
30571;SDS011;17348;50.948;10.696;2024-01-16T12:50:58;18.53;;;4.23;;
30571;SDS011;17348;50.948;10.696;2024-01-16T12:54:12;11.43;;;4.10;;
30571;SDS011;17348;50.948;10.696;2024-01-16T12:57:18;9.70;;;3.80;;
30571;SDS011;17348;50.948;10.696;2024-01-16T13:00:25;7.30;;;3.40;;
30571;SDS011;17348;50.948;10.696;2024-01-16T13:03:27;9.33;;;3.17;;
30571;SDS011;17348;50.948;10.696;2024-01-16T13:06:30;7.80;;;3.50;;
30571;SDS011;17348;50.948;10.696;2024-01-16T13:09:34;5.37;;;3.53;;
30571;SDS011;17348;50.948;10.696;2024-01-16T13:12:37;8.00;;;4.53;;
30571;SDS011;17348;50.948;10.696;2024-01-16T13:15:40;9.80;;;3.80;;
30571;SDS011;17348;50.948;10.696;2024-01-16T13:18:43;8.47;;;4.87;;
30571;SDS011;17348;50.948;10.696;2024-01-16T13:21:46;10.63;;;4.63;;
30571;SDS011;17348;50.948;10.696;2024-01-16T13:24:49;9.87;;;4.10;;
30571;SDS011;17348;50.948;10.696;2024-01-16T13:27:52;6.73;;;3.57;;
30571;SDS011;17348;50.948;10.696;2024-01-16T13:30:55;9.03;;;3.87;;
30571;SDS011;17348;50.948;10.696;2024-01-16T13:33:58;14.97;;;4.13;;
30571;SDS011;17348;50.948;10.696;2024-01-16T13:37:00;10.87;;;4.03;;
30571;SDS011;17348;50.948;10.696;2024-01-16T13:40:07;10.67;;;4.00;;
30571;SDS011;17348;50.948;10.696;2024-01-16T13:43:10;7.03;;;4.13;;
30571;SDS011;17348;50.948;10.696;2024-01-16T13:46:13;11.80;;;4.50;;
30571;SDS011;17348;50.948;10.696;2024-01-16T13:49:18;12.10;;;4.57;;
30571;SDS011;17348;50.948;10.696;2024-01-16T13:52:20;12.40;;;4.33;;
30571;SDS011;17348;50.948;10.696;2024-01-16T13:55:24;13.47;;;4.03;;
30571;SDS011;17348;50.948;10.696;2024-01-16T13:58:26;12.70;;;4.20;;
30571;SDS011;17348;50.948;10.696;2024-01-16T14:01:29;12.13;;;3.70;;
30571;SDS011;17348;50.948;10.696;2024-01-16T14:04:31;10.03;;;3.60;;
30571;SDS011;17348;50.948;10.696;2024-01-16T14:07:33;10.30;;;3.50;;
30571;SDS011;17348;50.948;10.696;2024-01-16T14:10:37;19.43;;;4.40;;
30571;SDS011;17348;50.948;10.696;2024-01-16T14:13:40;9.30;;;4.00;;
30571;SDS011;17348;50.948;10.696;2024-01-16T14:16:44;9.43;;;4.03;;
30571;SDS011;17348;50.948;10.696;2024-01-16T14:19:49;10.90;;;3.93;;
30571;SDS011;17348;50.948;10.696;2024-01-16T14:22:52;11.13;;;3.67;;
30571;SDS011;17348;50.948;10.696;2024-01-16T14:25:56;5.63;;;3.37;;
30571;SDS011;17348;50.948;10.696;2024-01-16T14:28:59;10.00;;;3.27;;
30571;SDS011;17348;50.948;10.696;2024-01-16T14:32:02;10.73;;;3.63;;
30571;SDS011;17348;50.948;10.696;2024-01-16T14:35:05;15.37;;;3.63;;
30571;SDS011;17348;50.948;10.696;2024-01-16T14:38:08;12.97;;;4.43;;
30571;SDS011;17348;50.948;10.696;2024-01-16T14:41:12;8.63;;;4.07;;
30571;SDS011;17348;50.948;10.696;2024-01-16T14:44:15;6.00;;;3.60;;
30571;SDS011;17348;50.948;10.696;2024-01-16T14:47:17;9.07;;;3.17;;
30571;SDS011;17348;50.948;10.696;2024-01-16T14:50:19;10.10;;;3.57;;
30571;SDS011;17348;50.948;10.696;2024-01-16T14:53:24;7.40;;;3.33;;
30571;SDS011;17348;50.948;10.696;2024-01-16T14:56:28;10.80;;;3.53;;
30571;SDS011;17348;50.948;10.696;2024-01-16T14:59:31;8.53;;;3.93;;
30571;SDS011;17348;50.948;10.696;2024-01-16T15:02:33;11.87;;;3.53;;
30571;SDS011;17348;50.948;10.696;2024-01-16T15:05:35;10.73;;;4.20;;
30571;SDS011;17348;50.948;10.696;2024-01-16T15:08:37;10.13;;;4.00;;
30571;SDS011;17348;50.948;10.696;2024-01-16T15:11:42;11.73;;;4.67;;
30571;SDS011;17348;50.948;10.696;2024-01-16T15:14:44;11.80;;;3.73;;
30571;SDS011;17348;50.948;10.696;2024-01-16T15:17:47;11.90;;;3.73;;
30571;SDS011;17348;50.948;10.696;2024-01-16T15:20:52;10.97;;;3.90;;
30571;SDS011;17348;50.948;10.696;2024-01-16T15:23:55;7.27;;;4.27;;
30571;SDS011;17348;50.948;10.696;2024-01-16T15:26:59;13.00;;;4.73;;
30571;SDS011;17348;50.948;10.696;2024-01-16T15:30:02;10.37;;;4.20;;
30571;SDS011;17348;50.948;10.696;2024-01-16T15:33:04;11.43;;;3.93;;
30571;SDS011;17348;50.948;10.696;2024-01-16T15:36:07;11.50;;;5.03;;
30571;SDS011;17348;50.948;10.696;2024-01-16T15:39:09;11.63;;;4.23;;
30571;SDS011;17348;50.948;10.696;2024-01-16T15:42:14;9.40;;;3.73;;
30571;SDS011;17348;50.948;10.696;2024-01-16T15:45:17;7.97;;;4.07;;
30571;SDS011;17348;50.948;10.696;2024-01-16T15:48:20;9.37;;;3.63;;
30571;SDS011;17348;50.948;10.696;2024-01-16T15:51:23;13.63;;;3.60;;
30571;SDS011;17348;50.948;10.696;2024-01-16T15:54:25;12.10;;;4.40;;
30571;SDS011;17348;50.948;10.696;2024-01-16T15:57:30;10.70;;;4.87;;
30571;SDS011;17348;50.948;10.696;2024-01-16T16:00:32;17.50;;;5.63;;
30571;SDS011;17348;50.948;10.696;2024-01-16T16:03:34;15.03;;;5.23;;
30571;SDS011;17348;50.948;10.696;2024-01-16T16:06:37;21.30;;;6.90;;
30571;SDS011;17348;50.948;10.696;2024-01-16T16:09:40;17.40;;;7.63;;
30571;SDS011;17348;50.948;10.696;2024-01-16T16:12:44;23.63;;;6.47;;
30571;SDS011;17348;50.948;10.696;2024-01-16T16:15:47;19.77;;;5.20;;
30571;SDS011;17348;50.948;10.696;2024-01-16T16:18:49;11.80;;;5.07;;
30571;SDS011;17348;50.948;10.696;2024-01-16T16:21:51;14.10;;;4.93;;
30571;SDS011;17348;50.948;10.696;2024-01-16T16:24:54;11.40;;;3.63;;
30571;SDS011;17348;50.948;10.696;2024-01-16T16:27:59;10.20;;;4.07;;
30571;SDS011;17348;50.948;10.696;2024-01-16T16:31:02;12.83;;;4.27;;
30571;SDS011;17348;50.948;10.696;2024-01-16T16:34:06;12.23;;;4.57;;
30571;SDS011;17348;50.948;10.696;2024-01-16T16:37:10;10.53;;;4.57;;
30571;SDS011;17348;50.948;10.696;2024-01-16T16:40:15;12.57;;;5.07;;
30571;SDS011;17348;50.948;10.696;2024-01-16T16:43:19;19.30;;;5.67;;
30571;SDS011;17348;50.948;10.696;2024-01-16T16:46:22;16.77;;;5.97;;
30571;SDS011;17348;50.948;10.696;2024-01-16T16:49:25;22.97;;;7.60;;
30571;SDS011;17348;50.948;10.696;2024-01-16T16:52:27;13.47;;;6.27;;
30571;SDS011;17348;50.948;10.696;2024-01-16T16:55:29;17.23;;;5.53;;
30571;SDS011;17348;50.948;10.696;2024-01-16T16:58:33;14.57;;;5.10;;
30571;SDS011;17348;50.948;10.696;2024-01-16T17:01:36;10.90;;;4.93;;
30571;SDS011;17348;50.948;10.696;2024-01-16T17:04:39;17.53;;;5.93;;
30571;SDS011;17348;50.948;10.696;2024-01-16T17:07:41;13.63;;;5.70;;
30571;SDS011;17348;50.948;10.696;2024-01-16T17:10:45;11.70;;;5.30;;
30571;SDS011;17348;50.948;10.696;2024-01-16T17:13:48;16.87;;;6.30;;
30571;SDS011;17348;50.948;10.696;2024-01-16T17:16:50;35.47;;;12.17;;
30571;SDS011;17348;50.948;10.696;2024-01-16T17:19:53;52.83;;;15.40;;
30571;SDS011;17348;50.948;10.696;2024-01-16T17:22:55;40.23;;;10.47;;
30571;SDS011;17348;50.948;10.696;2024-01-16T17:25:57;30.13;;;10.17;;
30571;SDS011;17348;50.948;10.696;2024-01-16T17:29:03;27.70;;;10.97;;
30571;SDS011;17348;50.948;10.696;2024-01-16T17:32:05;22.10;;;8.40;;
30571;SDS011;17348;50.948;10.696;2024-01-16T17:35:08;25.77;;;8.97;;
30571;SDS011;17348;50.948;10.696;2024-01-16T17:38:14;20.93;;;9.57;;
30571;SDS011;17348;50.948;10.696;2024-01-16T17:41:19;22.27;;;9.70;;
30571;SDS011;17348;50.948;10.696;2024-01-16T17:44:27;27.07;;;9.57;;
30571;SDS011;17348;50.948;10.696;2024-01-16T17:47:34;25.80;;;11.23;;
30571;SDS011;17348;50.948;10.696;2024-01-16T17:50:39;34.83;;;10.00;;
30571;SDS011;17348;50.948;10.696;2024-01-16T17:53:41;23.83;;;9.10;;
30571;SDS011;17348;50.948;10.696;2024-01-16T17:56:44;25.43;;;7.83;;
30571;SDS011;17348;50.948;10.696;2024-01-16T17:59:49;22.57;;;8.83;;
30571;SDS011;17348;50.948;10.696;2024-01-16T18:02:52;29.00;;;10.47;;
30571;SDS011;17348;50.948;10.696;2024-01-16T18:05:54;27.90;;;8.90;;
30571;SDS011;17348;50.948;10.696;2024-01-16T18:08:59;19.03;;;7.97;;